Winthrop, Arkansas
Current Conditions -  °F | °C
As of 7:53 PM on Friday 19 Dec 2014 (Local Time) from KDEQ Reporting Station
Overcast Overcast  
Wind Chill: 43°   Ceiling: 2700
Heat Index: 45°   Visibility: 7mi
Dew Point: 42°   Wind: 5mph
Humidity: 90%   Direction: 100°E
Pressure: 30.2"   Gusts: NA
Location:  33.83°N, 94.35°W
Report Text: KDEQ 200153Z AUTO 10004KT 7SM OVC027 07/06 A3020 RMK AO2 SLP225 T00720056
Loading
Personal Weather Stations






























Interactive Weather Map New forecast layout! Learn more

10-Day Weather Forecast

Advertisements
Track Severe Weather on mobile